sensor_id;sensor_type;location;lat;lon;timestamp;P1;durP1;ratioP1;P2;durP2;ratioP2
74674;SDS011;63200;48.810;12.352;2022-11-15T00:00:02;19.90;;;10.30;;
74674;SDS011;63200;48.810;12.352;2022-11-15T00:02:28;20.45;;;10.40;;
74674;SDS011;63200;48.810;12.352;2022-11-15T00:04:54;20.83;;;11.25;;
74674;SDS011;63200;48.810;12.352;2022-11-15T00:07:19;24.00;;;12.05;;
74674;SDS011;63200;48.810;12.352;2022-11-15T00:09:44;28.05;;;11.98;;
74674;SDS011;63200;48.810;12.352;2022-11-15T00:12:10;24.58;;;11.93;;
74674;SDS011;63200;48.810;12.352;2022-11-15T00:14:35;24.05;;;12.20;;
74674;SDS011;63200;48.810;12.352;2022-11-15T00:17:00;25.55;;;12.32;;
74674;SDS011;63200;48.810;12.352;2022-11-15T00:19:25;23.23;;;10.52;;
74674;SDS011;63200;48.810;12.352;2022-11-15T00:21:51;19.13;;;9.55;;
74674;SDS011;63200;48.810;12.352;2022-11-15T00:24:16;18.65;;;9.23;;
74674;SDS011;63200;48.810;12.352;2022-11-15T00:26:41;21.88;;;10.13;;
74674;SDS011;63200;48.810;12.352;2022-11-15T00:29:07;27.33;;;11.75;;
74674;SDS011;63200;48.810;12.352;2022-11-15T00:31:32;24.58;;;12.70;;
74674;SDS011;63200;48.810;12.352;2022-11-15T00:33:57;30.40;;;13.15;;
74674;SDS011;63200;48.810;12.352;2022-11-15T00:36:23;21.95;;;12.13;;
74674;SDS011;63200;48.810;12.352;2022-11-15T00:38:48;21.90;;;11.30;;
74674;SDS011;63200;48.810;12.352;2022-11-15T00:41:13;21.25;;;10.35;;
74674;SDS011;63200;48.810;12.352;2022-11-15T00:43:39;14.32;;;8.98;;
74674;SDS011;63200;48.810;12.352;2022-11-15T00:46:05;18.00;;;9.40;;
74674;SDS011;63200;48.810;12.352;2022-11-15T00:48:30;15.32;;;9.77;;
74674;SDS011;63200;48.810;12.352;2022-11-15T00:50:57;17.23;;;10.15;;
74674;SDS011;63200;48.810;12.352;2022-11-15T00:53:22;21.38;;;10.63;;
74674;SDS011;63200;48.810;12.352;2022-11-15T00:55:47;20.83;;;10.52;;
74674;SDS011;63200;48.810;12.352;2022-11-15T00:58:13;21.92;;;10.40;;
74674;SDS011;63200;48.810;12.352;2022-11-15T01:00:38;19.80;;;9.52;;
74674;SDS011;63200;48.810;12.352;2022-11-15T01:03:03;19.05;;;9.65;;
74674;SDS011;63200;48.810;12.352;2022-11-15T01:05:29;20.90;;;10.23;;
74674;SDS011;63200;48.810;12.352;2022-11-15T01:07:55;15.25;;;10.02;;
74674;SDS011;63200;48.810;12.352;2022-11-15T01:10:21;18.58;;;9.27;;
74674;SDS011;63200;48.810;12.352;2022-11-15T01:12:48;16.55;;;9.60;;
74674;SDS011;63200;48.810;12.352;2022-11-15T01:15:13;18.63;;;9.77;;
74674;SDS011;63200;48.810;12.352;2022-11-15T01:17:39;22.50;;;10.23;;
74674;SDS011;63200;48.810;12.352;2022-11-15T01:20:04;17.50;;;9.10;;
74674;SDS011;63200;48.810;12.352;2022-11-15T01:22:30;15.77;;;8.97;;
74674;SDS011;63200;48.810;12.352;2022-11-15T01:24:55;17.15;;;9.15;;
74674;SDS011;63200;48.810;12.352;2022-11-15T01:27:21;16.20;;;8.55;;
74674;SDS011;63200;48.810;12.352;2022-11-15T01:29:46;13.93;;;7.93;;
74674;SDS011;63200;48.810;12.352;2022-11-15T01:32:12;14.02;;;8.43;;
74674;SDS011;63200;48.810;12.352;2022-11-15T01:34:37;18.00;;;8.48;;
74674;SDS011;63200;48.810;12.352;2022-11-15T01:37:02;15.30;;;8.80;;
74674;SDS011;63200;48.810;12.352;2022-11-15T01:39:28;15.70;;;8.73;;
74674;SDS011;63200;48.810;12.352;2022-11-15T01:41:53;15.02;;;8.50;;
74674;SDS011;63200;48.810;12.352;2022-11-15T01:47:00;13.75;;;8.30;;
74674;SDS011;63200;48.810;12.352;2022-11-15T01:49:28;13.70;;;8.50;;
74674;SDS011;63200;48.810;12.352;2022-11-15T01:51:57;16.05;;;8.38;;
74674;SDS011;63200;48.810;12.352;2022-11-15T01:54:24;16.10;;;8.88;;
74674;SDS011;63200;48.810;12.352;2022-11-15T01:56:51;15.18;;;8.95;;
74674;SDS011;63200;48.810;12.352;2022-11-15T01:59:21;14.93;;;8.27;;
74674;SDS011;63200;48.810;12.352;2022-11-15T02:01:47;20.63;;;9.00;;
74674;SDS011;63200;48.810;12.352;2022-11-15T02:04:13;19.05;;;8.52;;
74674;SDS011;63200;48.810;12.352;2022-11-15T02:06:42;19.65;;;9.90;;
74674;SDS011;63200;48.810;12.352;2022-11-15T02:09:09;17.50;;;9.25;;
74674;SDS011;63200;48.810;12.352;2022-11-15T02:11:35;22.38;;;10.40;;
74674;SDS011;63200;48.810;12.352;2022-11-15T02:14:01;19.53;;;9.97;;
74674;SDS011;63200;48.810;12.352;2022-11-15T02:19:18;18.25;;;9.32;;
74674;SDS011;63200;48.810;12.352;2022-11-15T02:30:19;21.17;;;8.90;;
74674;SDS011;63200;48.810;12.352;2022-11-15T02:32:52;15.97;;;8.97;;
74674;SDS011;63200;48.810;12.352;2022-11-15T02:38:08;15.93;;;8.80;;
74674;SDS011;63200;48.810;12.352;2022-11-15T02:40:49;12.90;;;8.47;;
74674;SDS011;63200;48.810;12.352;2022-11-15T02:43:22;20.23;;;8.83;;
74674;SDS011;63200;48.810;12.352;2022-11-15T02:48:40;12.98;;;7.55;;
74674;SDS011;63200;48.810;12.352;2022-11-15T02:51:07;14.15;;;7.80;;
74674;SDS011;63200;48.810;12.352;2022-11-15T02:53:33;14.23;;;8.63;;
74674;SDS011;63200;48.810;12.352;2022-11-15T02:55:58;11.93;;;7.53;;
74674;SDS011;63200;48.810;12.352;2022-11-15T03:07:05;14.37;;;7.87;;
74674;SDS011;63200;48.810;12.352;2022-11-15T03:15:06;15.33;;;8.40;;
74674;SDS011;63200;48.810;12.352;2022-11-15T03:17:48;15.00;;;8.65;;
74674;SDS011;63200;48.810;12.352;2022-11-15T03:20:19;19.77;;;8.43;;
74674;SDS011;63200;48.810;12.352;2022-11-15T03:22:45;19.60;;;8.45;;
74674;SDS011;63200;48.810;12.352;2022-11-15T03:25:14;31.02;;;10.20;;
74674;SDS011;63200;48.810;12.352;2022-11-15T03:27:46;21.02;;;9.00;;
74674;SDS011;63200;48.810;12.352;2022-11-15T03:30:15;22.80;;;9.50;;
74674;SDS011;63200;48.810;12.352;2022-11-15T03:32:44;25.93;;;10.73;;
74674;SDS011;63200;48.810;12.352;2022-11-15T03:35:14;32.50;;;10.97;;
74674;SDS011;63200;48.810;12.352;2022-11-15T03:37:52;36.85;;;10.65;;
74674;SDS011;63200;48.810;12.352;2022-11-15T03:40:42;22.53;;;10.17;;
74674;SDS011;63200;48.810;12.352;2022-11-15T03:45:56;54.47;;;10.97;;
74674;SDS011;63200;48.810;12.352;2022-11-15T03:48:33;29.88;;;10.32;;
74674;SDS011;63200;48.810;12.352;2022-11-15T03:51:02;16.77;;;9.53;;
74674;SDS011;63200;48.810;12.352;2022-11-15T03:53:29;32.90;;;11.90;;
74674;SDS011;63200;48.810;12.352;2022-11-15T03:55:55;20.17;;;9.75;;
74674;SDS011;63200;48.810;12.352;2022-11-15T03:58:21;19.47;;;9.73;;
74674;SDS011;63200;48.810;12.352;2022-11-15T04:00:46;19.20;;;10.53;;
74674;SDS011;63200;48.810;12.352;2022-11-15T04:03:11;26.23;;;10.20;;
74674;SDS011;63200;48.810;12.352;2022-11-15T04:05:36;30.23;;;10.03;;
74674;SDS011;63200;48.810;12.352;2022-11-15T04:08:02;22.17;;;8.73;;
74674;SDS011;63200;48.810;12.352;2022-11-15T04:10:27;18.70;;;9.43;;
74674;SDS011;63200;48.810;12.352;2022-11-15T04:12:52;18.43;;;9.20;;
74674;SDS011;63200;48.810;12.352;2022-11-15T04:15:20;13.60;;;8.10;;
74674;SDS011;63200;48.810;12.352;2022-11-15T04:20:18;16.00;;;7.90;;
74674;SDS011;63200;48.810;12.352;2022-11-15T04:23:03;16.50;;;8.10;;
74674;SDS011;63200;48.810;12.352;2022-11-15T04:25:51;13.27;;;7.32;;
74674;SDS011;63200;48.810;12.352;2022-11-15T04:28:17;15.67;;;8.00;;
74674;SDS011;63200;48.810;12.352;2022-11-15T04:30:43;12.43;;;7.77;;
74674;SDS011;63200;48.810;12.352;2022-11-15T04:33:08;14.13;;;7.83;;
74674;SDS011;63200;48.810;12.352;2022-11-15T04:35:34;11.00;;;7.47;;
74674;SDS011;63200;48.810;12.352;2022-11-15T04:38:00;14.97;;;7.80;;
74674;SDS011;63200;48.810;12.352;2022-11-15T04:40:26;13.10;;;7.87;;
74674;SDS011;63200;48.810;12.352;2022-11-15T04:42:51;15.30;;;7.50;;
74674;SDS011;63200;48.810;12.352;2022-11-15T04:45:17;12.27;;;7.00;;
74674;SDS011;63200;48.810;12.352;2022-11-15T04:47:43;13.10;;;7.50;;
74674;SDS011;63200;48.810;12.352;2022-11-15T04:50:10;13.40;;;8.00;;
74674;SDS011;63200;48.810;12.352;2022-11-15T04:52:38;11.60;;;7.10;;
74674;SDS011;63200;48.810;12.352;2022-11-15T04:55:23;15.57;;;8.00;;
74674;SDS011;63200;48.810;12.352;2022-11-15T04:57:56;11.90;;;7.40;;
74674;SDS011;63200;48.810;12.352;2022-11-15T05:00:23;10.83;;;6.93;;
74674;SDS011;63200;48.810;12.352;2022-11-15T05:02:48;15.07;;;7.63;;
74674;SDS011;63200;48.810;12.352;2022-11-15T05:05:34;14.50;;;6.67;;
74674;SDS011;63200;48.810;12.352;2022-11-15T05:07:59;14.77;;;7.00;;
74674;SDS011;63200;48.810;12.352;2022-11-15T05:10:24;12.77;;;7.83;;
74674;SDS011;63200;48.810;12.352;2022-11-15T05:12:50;14.50;;;7.57;;
74674;SDS011;63200;48.810;12.352;2022-11-15T05:15:15;13.53;;;7.43;;
74674;SDS011;63200;48.810;12.352;2022-11-15T05:17:40;11.97;;;7.10;;
74674;SDS011;63200;48.810;12.352;2022-11-15T05:20:06;14.03;;;8.27;;
74674;SDS011;63200;48.810;12.352;2022-11-15T05:22:32;14.53;;;8.27;;
74674;SDS011;63200;48.810;12.352;2022-11-15T05:24:57;16.70;;;8.17;;
74674;SDS011;63200;48.810;12.352;2022-11-15T05:27:22;12.90;;;7.40;;
74674;SDS011;63200;48.810;12.352;2022-11-15T05:29:48;15.27;;;7.83;;
74674;SDS011;63200;48.810;12.352;2022-11-15T05:32:13;16.50;;;8.10;;
74674;SDS011;63200;48.810;12.352;2022-11-15T05:34:38;14.27;;;7.83;;
74674;SDS011;63200;48.810;12.352;2022-11-15T05:37:04;15.10;;;8.40;;
74674;SDS011;63200;48.810;12.352;2022-11-15T05:39:30;15.53;;;8.23;;
74674;SDS011;63200;48.810;12.352;2022-11-15T05:42:04;12.87;;;8.10;;
74674;SDS011;63200;48.810;12.352;2022-11-15T05:44:34;11.87;;;7.47;;
74674;SDS011;63200;48.810;12.352;2022-11-15T05:47:01;14.87;;;8.50;;
74674;SDS011;63200;48.810;12.352;2022-11-15T05:49:29;15.53;;;7.77;;
74674;SDS011;63200;48.810;12.352;2022-11-15T05:51:59;16.37;;;7.67;;
74674;SDS011;63200;48.810;12.352;2022-11-15T05:54:25;15.30;;;7.83;;
74674;SDS011;63200;48.810;12.352;2022-11-15T05:56:51;15.60;;;7.80;;
74674;SDS011;63200;48.810;12.352;2022-11-15T05:59:17;13.83;;;7.83;;
74674;SDS011;63200;48.810;12.352;2022-11-15T06:01:43;14.07;;;7.70;;
74674;SDS011;63200;48.810;12.352;2022-11-15T06:04:09;16.23;;;8.63;;
74674;SDS011;63200;48.810;12.352;2022-11-15T06:06:34;16.43;;;7.90;;
74674;SDS011;63200;48.810;12.352;2022-11-15T06:09:00;14.03;;;8.30;;
74674;SDS011;63200;48.810;12.352;2022-11-15T06:11:25;14.53;;;8.33;;
74674;SDS011;63200;48.810;12.352;2022-11-15T06:13:50;16.53;;;9.43;;
74674;SDS011;63200;48.810;12.352;2022-11-15T06:16:16;18.27;;;9.43;;
74674;SDS011;63200;48.810;12.352;2022-11-15T06:18:41;20.90;;;9.80;;
74674;SDS011;63200;48.810;12.352;2022-11-15T06:21:06;24.10;;;10.40;;
74674;SDS011;63200;48.810;12.352;2022-11-15T06:23:32;25.37;;;10.93;;
74674;SDS011;63200;48.810;12.352;2022-11-15T06:25:59;20.97;;;10.00;;
74674;SDS011;63200;48.810;12.352;2022-11-15T06:28:28;31.83;;;10.23;;
74674;SDS011;63200;48.810;12.352;2022-11-15T06:31:01;27.43;;;10.27;;
74674;SDS011;63200;48.810;12.352;2022-11-15T06:33:31;21.97;;;9.77;;
74674;SDS011;63200;48.810;12.352;2022-11-15T06:36:03;25.87;;;10.93;;
74674;SDS011;63200;48.810;12.352;2022-11-15T06:38:30;22.87;;;9.87;;
74674;SDS011;63200;48.810;12.352;2022-11-15T06:41:00;20.27;;;9.20;;
74674;SDS011;63200;48.810;12.352;2022-11-15T06:43:27;22.53;;;10.30;;
74674;SDS011;63200;48.810;12.352;2022-11-15T06:45:53;19.37;;;9.13;;
74674;SDS011;63200;48.810;12.352;2022-11-15T06:48:18;18.30;;;9.77;;
74674;SDS011;63200;48.810;12.352;2022-11-15T06:50:49;16.90;;;8.60;;
74674;SDS011;63200;48.810;12.352;2022-11-15T06:53:15;12.87;;;8.00;;
74674;SDS011;63200;48.810;12.352;2022-11-15T06:55:41;14.63;;;8.80;;
74674;SDS011;63200;48.810;12.352;2022-11-15T06:58:06;13.88;;;8.48;;
74674;SDS011;63200;48.810;12.352;2022-11-15T07:00:31;15.88;;;8.23;;
74674;SDS011;63200;48.810;12.352;2022-11-15T07:02:59;14.23;;;8.43;;
74674;SDS011;63200;48.810;12.352;2022-11-15T07:05:25;12.57;;;7.95;;
74674;SDS011;63200;48.810;12.352;2022-11-15T07:07:51;15.45;;;7.72;;
74674;SDS011;63200;48.810;12.352;2022-11-15T07:10:20;12.82;;;8.52;;
74674;SDS011;63200;48.810;12.352;2022-11-15T07:12:47;13.15;;;7.60;;
74674;SDS011;63200;48.810;12.352;2022-11-15T07:15:14;12.25;;;8.10;;
74674;SDS011;63200;48.810;12.352;2022-11-15T07:17:40;14.60;;;8.05;;
74674;SDS011;63200;48.810;12.352;2022-11-15T07:20:05;13.05;;;8.55;;
74674;SDS011;63200;48.810;12.352;2022-11-15T07:22:31;12.25;;;7.65;;
74674;SDS011;63200;48.810;12.352;2022-11-15T07:24:56;11.48;;;7.72;;
74674;SDS011;63200;48.810;12.352;2022-11-15T07:27:21;12.68;;;7.45;;
74674;SDS011;63200;48.810;12.352;2022-11-15T07:29:47;12.40;;;8.32;;
74674;SDS011;63200;48.810;12.352;2022-11-15T07:32:12;12.63;;;8.63;;
74674;SDS011;63200;48.810;12.352;2022-11-15T07:34:37;18.45;;;9.52;;
74674;SDS011;63200;48.810;12.352;2022-11-15T07:37:02;17.80;;;10.68;;
74674;SDS011;63200;48.810;12.352;2022-11-15T07:39:28;23.08;;;10.07;;
74674;SDS011;63200;48.810;12.352;2022-11-15T07:41:53;17.13;;;10.38;;
74674;SDS011;63200;48.810;12.352;2022-11-15T07:44:38;18.15;;;10.38;;
74674;SDS011;63200;48.810;12.352;2022-11-15T07:47:04;16.58;;;10.95;;
74674;SDS011;63200;48.810;12.352;2022-11-15T07:49:29;14.27;;;9.68;;
74674;SDS011;63200;48.810;12.352;2022-11-15T07:51:54;12.70;;;8.50;;
74674;SDS011;63200;48.810;12.352;2022-11-15T07:54:20;11.57;;;7.20;;
74674;SDS011;63200;48.810;12.352;2022-11-15T07:56:45;9.85;;;6.82;;
74674;SDS011;63200;48.810;12.352;2022-11-15T07:59:10;12.15;;;7.38;;
74674;SDS011;63200;48.810;12.352;2022-11-15T08:01:36;12.68;;;8.60;;
74674;SDS011;63200;48.810;12.352;2022-11-15T08:04:01;13.05;;;7.50;;
74674;SDS011;63200;48.810;12.352;2022-11-15T08:06:26;12.18;;;7.32;;
74674;SDS011;63200;48.810;12.352;2022-11-15T08:08:51;11.82;;;7.13;;
74674;SDS011;63200;48.810;12.352;2022-11-15T08:11:17;12.52;;;7.00;;
74674;SDS011;63200;48.810;12.352;2022-11-15T08:13:42;11.57;;;7.28;;
74674;SDS011;63200;48.810;12.352;2022-11-15T08:16:07;13.68;;;8.85;;
74674;SDS011;63200;48.810;12.352;2022-11-15T08:18:34;18.25;;;10.95;;
74674;SDS011;63200;48.810;12.352;2022-11-15T08:20:59;16.48;;;10.32;;
74674;SDS011;63200;48.810;12.352;2022-11-15T08:23:26;15.45;;;10.77;;
74674;SDS011;63200;48.810;12.352;2022-11-15T08:25:52;14.07;;;8.43;;
74674;SDS011;63200;48.810;12.352;2022-11-15T08:28:17;11.95;;;8.93;;
74674;SDS011;63200;48.810;12.352;2022-11-15T08:30:43;15.45;;;9.48;;
74674;SDS011;63200;48.810;12.352;2022-11-15T08:33:11;13.90;;;9.32;;
74674;SDS011;63200;48.810;12.352;2022-11-15T08:35:38;14.95;;;10.43;;
74674;SDS011;63200;48.810;12.352;2022-11-15T08:38:03;14.88;;;9.43;;
74674;SDS011;63200;48.810;12.352;2022-11-15T08:40:29;14.35;;;8.90;;
74674;SDS011;63200;48.810;12.352;2022-11-15T08:42:54;14.57;;;8.63;;
74674;SDS011;63200;48.810;12.352;2022-11-15T08:45:19;11.85;;;8.82;;
74674;SDS011;63200;48.810;12.352;2022-11-15T08:47:45;13.10;;;9.05;;
74674;SDS011;63200;48.810;12.352;2022-11-15T08:50:10;14.63;;;9.85;;
74674;SDS011;63200;48.810;12.352;2022-11-15T08:52:36;14.25;;;9.15;;
74674;SDS011;63200;48.810;12.352;2022-11-15T08:55:01;15.43;;;9.57;;
74674;SDS011;63200;48.810;12.352;2022-11-15T08:57:30;18.30;;;10.30;;
74674;SDS011;63200;48.810;12.352;2022-11-15T08:59:55;17.08;;;10.82;;
74674;SDS011;63200;48.810;12.352;2022-11-15T09:02:21;17.58;;;11.43;;
74674;SDS011;63200;48.810;12.352;2022-11-15T09:04:47;21.63;;;13.30;;
74674;SDS011;63200;48.810;12.352;2022-11-15T09:07:13;23.77;;;13.50;;
74674;SDS011;63200;48.810;12.352;2022-11-15T09:09:39;23.88;;;14.05;;
74674;SDS011;63200;48.810;12.352;2022-11-15T09:12:05;22.58;;;13.40;;
74674;SDS011;63200;48.810;12.352;2022-11-15T09:14:31;17.00;;;11.45;;
74674;SDS011;63200;48.810;12.352;2022-11-15T09:16:56;16.05;;;11.45;;
74674;SDS011;63200;48.810;12.352;2022-11-15T09:19:23;18.88;;;12.32;;
74674;SDS011;63200;48.810;12.352;2022-11-15T09:21:48;22.30;;;12.77;;
74674;SDS011;63200;48.810;12.352;2022-11-15T09:24:14;23.75;;;13.75;;
74674;SDS011;63200;48.810;12.352;2022-11-15T09:26:39;27.60;;;14.90;;
74674;SDS011;63200;48.810;12.352;2022-11-15T09:29:05;25.58;;;14.48;;
74674;SDS011;63200;48.810;12.352;2022-11-15T09:31:31;35.53;;;18.98;;
74674;SDS011;63200;48.810;12.352;2022-11-15T09:33:56;36.90;;;17.45;;
74674;SDS011;63200;48.810;12.352;2022-11-15T09:36:21;30.23;;;16.27;;
74674;SDS011;63200;48.810;12.352;2022-11-15T09:38:47;27.58;;;15.30;;
74674;SDS011;63200;48.810;12.352;2022-11-15T09:46:21;26.10;;;13.90;;
74674;SDS011;63200;48.810;12.352;2022-11-15T09:48:56;22.58;;;12.95;;
74674;SDS011;63200;48.810;12.352;2022-11-15T09:51:30;23.45;;;13.57;;
74674;SDS011;63200;48.810;12.352;2022-11-15T09:56:35;20.83;;;11.90;;
74674;SDS011;63200;48.810;12.352;2022-11-15T09:59:11;21.80;;;11.68;;
74674;SDS011;63200;48.810;12.352;2022-11-15T10:04:25;21.70;;;10.32;;
74674;SDS011;63200;48.810;12.352;2022-11-15T10:07:02;16.40;;;10.90;;
74674;SDS011;63200;48.810;12.352;2022-11-15T10:09:37;16.13;;;10.65;;
74674;SDS011;63200;48.810;12.352;2022-11-15T10:12:07;15.82;;;11.30;;
74674;SDS011;63200;48.810;12.352;2022-11-15T10:14:34;19.98;;;12.63;;
74674;SDS011;63200;48.810;12.352;2022-11-15T10:20:10;18.80;;;11.82;;
74674;SDS011;63200;48.810;12.352;2022-11-15T10:22:41;19.10;;;11.98;;
74674;SDS011;63200;48.810;12.352;2022-11-15T10:27:38;19.70;;;11.70;;
74674;SDS011;63200;48.810;12.352;2022-11-15T10:30:06;19.33;;;11.18;;
74674;SDS011;63200;48.810;12.352;2022-11-15T10:32:37;17.55;;;11.25;;
74674;SDS011;63200;48.810;12.352;2022-11-15T10:35:15;18.25;;;11.50;;
74674;SDS011;63200;48.810;12.352;2022-11-15T10:37:46;18.83;;;11.63;;
74674;SDS011;63200;48.810;12.352;2022-11-15T10:40:21;16.55;;;11.00;;
74674;SDS011;63200;48.810;12.352;2022-11-15T10:42:49;17.08;;;10.57;;
74674;SDS011;63200;48.810;12.352;2022-11-15T10:45:31;18.88;;;10.77;;
74674;SDS011;63200;48.810;12.352;2022-11-15T10:48:40;22.48;;;11.35;;
74674;SDS011;63200;48.810;12.352;2022-11-15T10:50:48;16.67;;;9.85;;
74674;SDS011;63200;48.810;12.352;2022-11-15T10:53:23;17.00;;;11.10;;
74674;SDS011;63200;48.810;12.352;2022-11-15T10:55:52;15.77;;;9.80;;
74674;SDS011;63200;48.810;12.352;2022-11-15T11:00:52;18.10;;;10.40;;
74674;SDS011;63200;48.810;12.352;2022-11-15T11:03:29;14.88;;;9.82;;
74674;SDS011;63200;48.810;12.352;2022-11-15T11:06:11;16.60;;;10.25;;
74674;SDS011;63200;48.810;12.352;2022-11-15T11:08:52;18.83;;;10.25;;
74674;SDS011;63200;48.810;12.352;2022-11-15T11:11:20;15.88;;;10.98;;
74674;SDS011;63200;48.810;12.352;2022-11-15T11:13:45;16.63;;;9.43;;
74674;SDS011;63200;48.810;12.352;2022-11-15T11:18:45;17.10;;;10.73;;
74674;SDS011;63200;48.810;12.352;2022-11-15T11:24:15;15.52;;;10.52;;
74674;SDS011;63200;48.810;12.352;2022-11-15T11:35:20;19.13;;;10.73;;
74674;SDS011;63200;48.810;12.352;2022-11-15T11:37:59;15.32;;;10.25;;
74674;SDS011;63200;48.810;12.352;2022-11-15T11:52:24;14.70;;;9.63;;
74674;SDS011;63200;48.810;12.352;2022-11-15T11:57:33;19.58;;;9.70;;
74674;SDS011;63200;48.810;12.352;2022-11-15T12:00:21;14.27;;;9.48;;
74674;SDS011;63200;48.810;12.352;2022-11-15T12:05:26;12.30;;;8.60;;
74674;SDS011;63200;48.810;12.352;2022-11-15T12:08:03;12.40;;;8.35;;
74674;SDS011;63200;48.810;12.352;2022-11-15T12:10:39;16.27;;;8.73;;
74674;SDS011;63200;48.810;12.352;2022-11-15T12:13:16;12.57;;;8.75;;
74674;SDS011;63200;48.810;12.352;2022-11-15T12:15:45;15.90;;;9.30;;
74674;SDS011;63200;48.810;12.352;2022-11-15T12:18:15;12.32;;;9.00;;
74674;SDS011;63200;48.810;12.352;2022-11-15T12:20:43;12.85;;;9.18;;
74674;SDS011;63200;48.810;12.352;2022-11-15T12:23:28;17.52;;;8.88;;
74674;SDS011;63200;48.810;12.352;2022-11-15T12:26:08;12.95;;;9.32;;
74674;SDS011;63200;48.810;12.352;2022-11-15T12:34:00;12.35;;;8.90;;
74674;SDS011;63200;48.810;12.352;2022-11-15T12:38:54;13.18;;;8.30;;
74674;SDS011;63200;48.810;12.352;2022-11-15T12:41:34;12.93;;;8.70;;
74674;SDS011;63200;48.810;12.352;2022-11-15T12:44:02;12.02;;;9.43;;
74674;SDS011;63200;48.810;12.352;2022-11-15T12:49:01;13.43;;;9.32;;
74674;SDS011;63200;48.810;12.352;2022-11-15T13:02:17;15.80;;;9.55;;
74674;SDS011;63200;48.810;12.352;2022-11-15T13:04:46;16.10;;;8.90;;
74674;SDS011;63200;48.810;12.352;2022-11-15T13:13:02;14.75;;;9.43;;
74674;SDS011;63200;48.810;12.352;2022-11-15T13:15:31;14.32;;;9.20;;
74674;SDS011;63200;48.810;12.352;2022-11-15T13:20:46;16.73;;;8.45;;
74674;SDS011;63200;48.810;12.352;2022-11-15T13:23:12;16.95;;;9.80;;
74674;SDS011;63200;48.810;12.352;2022-11-15T13:25:44;13.45;;;9.40;;
74674;SDS011;63200;48.810;12.352;2022-11-15T13:31:19;12.35;;;9.02;;
74674;SDS011;63200;48.810;12.352;2022-11-15T13:33:50;12.73;;;8.40;;
74674;SDS011;63200;48.810;12.352;2022-11-15T13:36:23;12.60;;;8.80;;
74674;SDS011;63200;48.810;12.352;2022-11-15T13:39:03;15.50;;;9.05;;
74674;SDS011;63200;48.810;12.352;2022-11-15T13:41:31;14.40;;;8.85;;
74674;SDS011;63200;48.810;12.352;2022-11-15T13:43:58;15.48;;;9.40;;
74674;SDS011;63200;48.810;12.352;2022-11-15T13:46:26;15.85;;;9.73;;
74674;SDS011;63200;48.810;12.352;2022-11-15T13:49:05;15.52;;;9.40;;
74674;SDS011;63200;48.810;12.352;2022-11-15T13:51:39;17.38;;;9.52;;
74674;SDS011;63200;48.810;12.352;2022-11-15T13:56:38;14.93;;;8.38;;
74674;SDS011;63200;48.810;12.352;2022-11-15T13:59:11;14.52;;;9.02;;
74674;SDS011;63200;48.810;12.352;2022-11-15T14:01:44;11.80;;;8.68;;
74674;SDS011;63200;48.810;12.352;2022-11-15T14:04:11;16.05;;;10.38;;
74674;SDS011;63200;48.810;12.352;2022-11-15T14:06:44;14.63;;;9.98;;
74674;SDS011;63200;48.810;12.352;2022-11-15T14:11:37;20.85;;;12.20;;
74674;SDS011;63200;48.810;12.352;2022-11-15T14:14:14;18.77;;;11.85;;
74674;SDS011;63200;48.810;12.352;2022-11-15T14:16:47;18.92;;;12.23;;
74674;SDS011;63200;48.810;12.352;2022-11-15T14:19:48;21.45;;;12.52;;
74674;SDS011;63200;48.810;12.352;2022-11-15T14:22:07;27.05;;;14.27;;
74674;SDS011;63200;48.810;12.352;2022-11-15T14:24:32;25.75;;;14.18;;
74674;SDS011;63200;48.810;12.352;2022-11-15T14:27:15;25.45;;;14.98;;
74674;SDS011;63200;48.810;12.352;2022-11-15T14:29:45;22.42;;;13.68;;
74674;SDS011;63200;48.810;12.352;2022-11-15T14:32:12;27.38;;;15.43;;
74674;SDS011;63200;48.810;12.352;2022-11-15T14:34:38;27.15;;;15.23;;
74674;SDS011;63200;48.810;12.352;2022-11-15T14:37:03;28.30;;;15.38;;
74674;SDS011;63200;48.810;12.352;2022-11-15T14:39:29;27.60;;;14.77;;
74674;SDS011;63200;48.810;12.352;2022-11-15T14:41:54;29.70;;;15.07;;
74674;SDS011;63200;48.810;12.352;2022-11-15T14:44:19;27.98;;;15.20;;
74674;SDS011;63200;48.810;12.352;2022-11-15T14:46:46;25.73;;;14.65;;
74674;SDS011;63200;48.810;12.352;2022-11-15T14:49:13;26.90;;;15.55;;
74674;SDS011;63200;48.810;12.352;2022-11-15T14:51:39;32.08;;;17.00;;
74674;SDS011;63200;48.810;12.352;2022-11-15T14:54:04;27.45;;;15.60;;
74674;SDS011;63200;48.810;12.352;2022-11-15T14:56:30;27.45;;;14.68;;
74674;SDS011;63200;48.810;12.352;2022-11-15T14:58:55;36.42;;;16.02;;
74674;SDS011;63200;48.810;12.352;2022-11-15T15:01:24;26.27;;;15.50;;
74674;SDS011;63200;48.810;12.352;2022-11-15T15:03:51;30.83;;;16.85;;
74674;SDS011;63200;48.810;12.352;2022-11-15T15:06:17;28.83;;;15.85;;
74674;SDS011;63200;48.810;12.352;2022-11-15T15:08:43;28.65;;;16.05;;
74674;SDS011;63200;48.810;12.352;2022-11-15T15:11:16;26.92;;;15.80;;
74674;SDS011;63200;48.810;12.352;2022-11-15T15:13:45;29.15;;;15.18;;
74674;SDS011;63200;48.810;12.352;2022-11-15T15:16:10;26.88;;;15.85;;
74674;SDS011;63200;48.810;12.352;2022-11-15T15:18:36;27.35;;;15.88;;
74674;SDS011;63200;48.810;12.352;2022-11-15T15:21:01;27.67;;;15.52;;
74674;SDS011;63200;48.810;12.352;2022-11-15T15:23:32;36.67;;;19.55;;
74674;SDS011;63200;48.810;12.352;2022-11-15T15:25:58;40.63;;;20.92;;
74674;SDS011;63200;48.810;12.352;2022-11-15T15:28:24;43.65;;;22.00;;
74674;SDS011;63200;48.810;12.352;2022-11-15T15:30:49;36.97;;;20.65;;
74674;SDS011;63200;48.810;12.352;2022-11-15T15:33:15;42.95;;;21.08;;
74674;SDS011;63200;48.810;12.352;2022-11-15T15:35:41;41.28;;;21.30;;
74674;SDS011;63200;48.810;12.352;2022-11-15T15:38:09;39.92;;;20.27;;
74674;SDS011;63200;48.810;12.352;2022-11-15T15:40:37;34.42;;;17.65;;
74674;SDS011;63200;48.810;12.352;2022-11-15T15:43:02;29.77;;;16.08;;
74674;SDS011;63200;48.810;12.352;2022-11-15T15:45:27;31.45;;;15.77;;
74674;SDS011;63200;48.810;12.352;2022-11-15T15:47:54;25.48;;;14.88;;
74674;SDS011;63200;48.810;12.352;2022-11-15T15:50:27;26.02;;;14.35;;
74674;SDS011;63200;48.810;12.352;2022-11-15T15:52:54;30.02;;;15.00;;
74674;SDS011;63200;48.810;12.352;2022-11-15T15:55:21;26.13;;;14.15;;
74674;SDS011;63200;48.810;12.352;2022-11-15T15:57:47;30.15;;;16.30;;
74674;SDS011;63200;48.810;12.352;2022-11-15T16:00:13;30.02;;;16.60;;
74674;SDS011;63200;48.810;12.352;2022-11-15T16:02:39;30.63;;;15.60;;
74674;SDS011;63200;48.810;12.352;2022-11-15T16:05:05;26.60;;;15.27;;
74674;SDS011;63200;48.810;12.352;2022-11-15T16:07:31;28.77;;;15.18;;
74674;SDS011;63200;48.810;12.352;2022-11-15T16:09:57;27.33;;;15.05;;
74674;SDS011;63200;48.810;12.352;2022-11-15T16:12:25;28.40;;;15.95;;
74674;SDS011;63200;48.810;12.352;2022-11-15T16:14:50;30.00;;;14.30;;
74674;SDS011;63200;48.810;12.352;2022-11-15T16:17:20;27.92;;;16.33;;
74674;SDS011;63200;48.810;12.352;2022-11-15T16:19:47;36.10;;;18.30;;
74674;SDS011;63200;48.810;12.352;2022-11-15T16:22:12;31.42;;;16.63;;
74674;SDS011;63200;48.810;12.352;2022-11-15T16:24:38;34.33;;;16.88;;
74674;SDS011;63200;48.810;12.352;2022-11-15T16:27:03;35.85;;;17.98;;